createdAt,value
2018-09-01T00:00:11.596Z,87.37
2018-09-01T00:01:11.574Z,87.55
2018-09-01T00:02:11.577Z,88.42
2018-09-01T00:03:11.571Z,88.32
2018-09-01T00:04:11.579Z,88.99
2018-09-01T00:05:11.583Z,88.23
2018-09-01T00:06:11.568Z,88.42
2018-09-01T00:07:11.569Z,89.14
2018-09-01T00:08:11.576Z,89.52
2018-09-01T00:09:11.561Z,90.14
2018-09-01T00:10:11.558Z,89.47
2018-09-01T00:11:11.581Z,89.37
2018-09-01T00:12:11.569Z,89.52
2018-09-01T00:13:11.547Z,89.47
2018-09-01T00:14:11.536Z,88.90
2018-09-01T00:15:11.553Z,89.09
2018-09-01T00:16:11.541Z,88.80
2018-09-01T00:17:11.539Z,89.43
2018-09-01T00:18:11.537Z,90.14
2018-09-01T00:19:11.540Z,90.09
2018-09-01T00:20:11.539Z,90.19
2018-09-01T00:21:11.537Z,90.48
2018-09-01T00:22:11.533Z,90.19
2018-09-01T00:23:11.524Z,90.48
2018-09-01T00:24:11.527Z,90.39
2018-09-01T00:25:11.525Z,90.39
2018-09-01T00:26:11.516Z,90.39
2018-09-01T00:27:11.520Z,90.96
2018-09-01T00:28:11.520Z,91.25
2018-09-01T00:29:11.509Z,92.30
2018-09-01T00:30:11.500Z,91.72
2018-09-01T00:31:11.520Z,91.34
2018-09-01T00:32:11.499Z,91.72
2018-09-01T00:33:11.491Z,91.34
2018-09-01T00:34:11.500Z,91.53
2018-09-01T00:35:11.505Z,91.15
2018-09-01T00:36:11.491Z,91.44
2018-09-01T00:37:11.486Z,91.63
2018-09-01T00:38:11.485Z,92.01
2018-09-01T00:39:11.492Z,91.92
2018-09-01T00:40:11.484Z,92.21
2018-09-01T00:41:11.485Z,92.83
2018-09-01T00:42:11.486Z,92.11
2018-09-01T00:43:11.470Z,92.35
2018-09-01T00:44:11.464Z,92.63
2018-09-01T00:45:11.467Z,93.12
2018-09-01T00:46:11.474Z,93.02
2018-09-01T00:47:11.456Z,93.30
2018-09-01T00:48:11.452Z,93.02
2018-09-01T00:49:11.457Z,93.12
2018-09-01T00:50:11.449Z,92.92
2018-09-01T00:51:11.450Z,92.63
2018-09-01T00:52:11.460Z,93.40
2018-09-01T00:53:11.456Z,93.02
2018-09-01T00:54:11.442Z,93.79
2018-09-01T00:55:11.444Z,94.55
2018-09-01T00:56:11.439Z,94.45
2018-09-01T00:57:11.426Z,95.12
2018-09-01T00:58:11.426Z,95.22
2018-09-01T00:59:11.427Z,94.65
2018-09-01T01:00:11.425Z,95.12
2018-09-01T01:01:11.417Z,95.03
2018-09-01T01:02:11.417Z,95.22
2018-09-01T01:03:11.420Z,95.22
2018-09-01T01:04:11.411Z,95.03
2018-09-01T01:05:11.410Z,94.89
2018-09-01T01:06:11.407Z,95.03
2018-09-01T01:07:11.396Z,95.61
2018-09-01T01:08:11.391Z,96.03
2018-09-01T01:09:11.401Z,96.03
2018-09-01T01:10:11.393Z,95.46
2018-09-01T01:11:11.384Z,95.56
2018-09-01T01:12:11.395Z,96.99
2018-09-01T01:13:11.392Z,96.22
2018-09-01T01:14:11.375Z,96.03
2018-09-01T01:15:11.384Z,96.13
2018-09-01T01:16:11.395Z,95.84
2018-09-01T01:17:11.368Z,96.13
2018-09-01T01:18:11.365Z,95.94
2018-09-01T01:19:11.380Z,96.80
2018-09-01T01:20:11.375Z,96.51
2018-09-01T01:21:11.346Z,97.18
2018-09-01T01:22:11.363Z,96.80
2018-09-01T01:23:11.350Z,96.80
2018-09-01T01:24:11.350Z,96.89
2018-09-01T01:25:11.346Z,96.99
2018-09-01T01:26:11.353Z,97.18
2018-09-01T01:27:11.337Z,97.18
2018-09-01T01:28:11.366Z,96.89
2018-09-01T01:29:11.338Z,97.18
2018-09-01T01:30:11.321Z,97.56
2018-09-01T01:31:11.324Z,97.75
2018-09-01T01:32:11.328Z,97.61
2018-09-01T01:33:11.318Z,97.75
2018-09-01T01:34:11.317Z,98.14
2018-09-01T01:35:11.315Z,97.28
2018-09-01T01:36:11.300Z,97.56
2018-09-01T01:37:11.326Z,97.47
2018-09-01T01:38:11.309Z,97.47
2018-09-01T01:39:11.292Z,98.18
2018-09-01T01:40:11.294Z,98.18
2018-09-01T01:41:11.300Z,98.18
2018-09-01T01:42:11.280Z,98.66
2018-09-01T01:43:11.279Z,98.57
2018-09-01T01:44:11.290Z,99.04
2018-09-01T01:45:11.281Z,98.75
2018-09-01T01:46:11.281Z,98.75
2018-09-01T01:47:11.284Z,98.57
2018-09-01T01:48:11.261Z,99.04
2018-09-01T01:49:11.261Z,99.24
2018-09-01T01:50:11.269Z,98.75
2018-09-01T01:51:11.252Z,98.75
2018-09-01T01:52:11.254Z,99.52
2018-09-01T01:53:11.262Z,99.62
2018-09-01T01:54:11.268Z,99.99
2018-09-01T01:55:11.247Z,99.99
2018-09-01T01:56:11.250Z,99.90
2018-09-01T01:57:11.238Z,99.81
2018-09-01T01:58:11.240Z,99.71
2018-09-01T01:59:11.236Z,99.62
2018-09-01T02:00:11.239Z,99.71
2018-09-01T02:01:11.226Z,99.43
2018-09-01T02:02:11.227Z,99.81
2018-09-01T02:03:11.223Z,99.90
2018-09-01T02:04:11.218Z,99.99
2018-09-01T02:05:11.208Z,99.99
2018-09-01T02:06:11.204Z,99.71
2018-09-01T02:07:11.204Z,99.62
2018-09-01T02:08:11.215Z,99.99
2018-09-01T02:09:11.200Z,99.99
2018-09-01T02:10:11.201Z,99.99
2018-09-01T02:11:11.195Z,99.99
2018-09-01T02:12:11.183Z,99.99
2018-09-01T02:13:11.183Z,99.99
2018-09-01T02:14:11.173Z,99.99
2018-09-01T02:15:11.183Z,99.99
2018-09-01T02:16:11.184Z,99.99
2018-09-01T02:17:11.159Z,99.99
2018-09-01T02:18:11.163Z,99.99
2018-09-01T02:19:11.183Z,99.99
2018-09-01T02:20:11.154Z,99.99
2018-09-01T02:21:11.153Z,99.99
2018-09-01T02:22:11.146Z,99.99
2018-09-01T02:23:11.146Z,99.99
2018-09-01T02:24:11.150Z,99.99
2018-09-01T02:25:11.137Z,99.99
2018-09-01T02:26:11.137Z,99.99
2018-09-01T02:27:11.136Z,99.99
2018-09-01T02:28:11.142Z,99.99
2018-09-01T02:29:11.129Z,99.99
2018-09-01T02:30:11.120Z,99.99
2018-09-01T02:31:11.121Z,99.99
2018-09-01T02:32:11.108Z,99.99
2018-09-01T02:33:11.107Z,99.99
2018-09-01T02:34:11.107Z,99.99
2018-09-01T02:35:11.105Z,99.99
2018-09-01T02:36:11.097Z,99.99
2018-09-01T02:37:11.106Z,99.99
2018-09-01T02:38:11.100Z,99.99
2018-09-01T02:39:11.100Z,99.99
2018-09-01T02:40:11.092Z,99.99
2018-09-01T02:41:11.076Z,99.99
2018-09-01T02:42:11.071Z,99.99
2018-09-01T02:43:11.080Z,99.99
2018-09-01T02:44:11.061Z,99.99
2018-09-01T02:45:11.068Z,99.99
2018-09-01T02:46:11.067Z,99.99
2018-09-01T02:47:11.056Z,99.99
2018-09-01T02:48:11.055Z,99.99
2018-09-01T02:49:11.046Z,99.99
2018-09-01T02:50:11.050Z,99.99
2018-09-01T02:51:11.049Z,99.99
2018-09-01T02:52:11.038Z,99.99
2018-09-01T02:53:11.040Z,99.99
2018-09-01T02:54:11.038Z,99.99
2018-09-01T02:55:11.029Z,99.99
2018-09-01T02:56:11.027Z,99.99
2018-09-01T02:57:11.027Z,99.99
2018-09-01T02:58:11.016Z,99.99
2018-09-01T02:59:11.013Z,99.99
2018-09-01T03:00:11.005Z,99.99
2018-09-01T03:01:10.996Z,99.99
2018-09-01T03:02:11.034Z,99.99
2018-09-01T03:03:10.992Z,99.99
2018-09-01T03:04:10.988Z,99.99
2018-09-01T03:05:10.986Z,99.99
2018-09-01T03:06:10.987Z,99.99
2018-09-01T03:07:10.988Z,99.99
2018-09-01T03:08:10.980Z,99.99
2018-09-01T03:09:10.982Z,99.99
2018-09-01T03:10:10.978Z,99.99
2018-09-01T03:11:10.979Z,99.99
2018-09-01T03:12:10.964Z,99.99
2018-09-01T03:13:10.952Z,99.99
2018-09-01T03:14:10.954Z,99.99
2018-09-01T03:15:10.955Z,99.99
2018-09-01T03:16:10.951Z,99.99
2018-09-01T03:17:10.944Z,99.99
2018-09-01T03:18:10.939Z,99.99
2018-09-01T03:19:10.940Z,99.99
2018-09-01T03:20:10.936Z,99.99
2018-09-01T03:21:10.930Z,99.99
2018-09-01T03:22:10.929Z,99.99
2018-09-01T03:23:10.934Z,99.99
2018-09-01T03:24:10.912Z,99.99
2018-09-01T03:25:10.919Z,99.99
2018-09-01T03:26:10.919Z,99.99
2018-09-01T03:27:10.910Z,99.99
2018-09-01T03:28:10.908Z,99.99
2018-09-01T03:29:10.890Z,99.99
2018-09-01T03:30:10.901Z,99.99
2018-09-01T03:31:10.899Z,99.99
2018-09-01T03:32:10.896Z,99.99
2018-09-01T03:33:10.883Z,99.99
2018-09-01T03:34:10.880Z,99.99
2018-09-01T03:35:10.878Z,99.99
2018-09-01T03:36:10.869Z,99.99
2018-09-01T03:37:10.867Z,99.99
2018-09-01T03:38:10.870Z,99.99
2018-09-01T03:39:10.866Z,99.99
2018-09-01T03:40:10.857Z,99.99
2018-09-01T03:41:10.846Z,99.99
2018-09-01T03:42:10.851Z,99.99
2018-09-01T03:43:10.851Z,99.99
2018-09-01T03:44:10.844Z,99.99
2018-09-01T03:45:10.841Z,99.99
2018-09-01T03:46:10.836Z,99.99
2018-09-01T03:47:10.834Z,99.99
2018-09-01T03:48:10.830Z,99.99
2018-09-01T03:49:10.819Z,99.99
2018-09-01T03:50:10.813Z,99.99
2018-09-01T03:51:10.811Z,99.99
2018-09-01T03:52:10.820Z,99.99
2018-09-01T03:53:10.805Z,99.99
2018-09-01T03:54:10.795Z,99.99
2018-09-01T03:55:10.803Z,99.99
2018-09-01T03:56:10.794Z,99.99
2018-09-01T03:57:10.796Z,99.99
2018-09-01T03:58:10.776Z,99.99
2018-09-01T03:59:10.795Z,99.99
2018-09-01T04:00:10.777Z,99.99
2018-09-01T04:01:10.768Z,99.99
2018-09-01T04:02:10.769Z,99.99
2018-09-01T04:03:10.750Z,99.99
2018-09-01T04:04:10.754Z,99.99
2018-09-01T04:05:10.757Z,99.99
2018-09-01T04:06:10.755Z,99.99
2018-09-01T04:07:10.738Z,99.99
2018-09-01T04:08:10.734Z,99.99
2018-09-01T04:09:10.755Z,99.99
2018-09-01T04:10:10.729Z,99.99
2018-09-01T04:11:10.732Z,99.99
2018-09-01T04:12:10.735Z,99.99
2018-09-01T04:13:10.721Z,99.99
2018-09-01T04:14:10.722Z,99.99
2018-09-01T04:15:10.721Z,99.99
2018-09-01T04:16:10.712Z,99.99
2018-09-01T04:17:10.701Z,99.99
2018-09-01T04:18:10.696Z,99.99
2018-09-01T04:19:10.701Z,99.99
2018-09-01T04:20:10.698Z,99.99
2018-09-01T04:21:10.686Z,99.99
2018-09-01T04:22:10.696Z,99.99
2018-09-01T04:23:10.676Z,99.99
2018-09-01T04:24:10.677Z,99.99
2018-09-01T04:25:10.665Z,99.99
2018-09-01T04:26:10.669Z,99.99
2018-09-01T04:27:10.671Z,99.99
2018-09-01T04:28:10.661Z,99.99
2018-09-01T04:29:10.648Z,99.99
2018-09-01T04:30:10.644Z,99.99
2018-09-01T04:31:10.653Z,99.99
2018-09-01T04:32:10.658Z,99.99
2018-09-01T04:33:10.641Z,99.99
2018-09-01T04:34:10.632Z,99.99
2018-09-01T04:35:10.623Z,99.99
2018-09-01T04:36:10.627Z,99.99
2018-09-01T04:37:10.613Z,99.99
2018-09-01T04:38:10.619Z,99.99
2018-09-01T04:39:10.626Z,99.99
2018-09-01T04:40:10.605Z,99.99
2018-09-01T04:41:10.609Z,99.99
2018-09-01T04:42:10.593Z,99.99
2018-09-01T04:43:10.596Z,99.99
2018-09-01T04:44:10.588Z,99.99
2018-09-01T04:45:10.592Z,99.99
2018-09-01T04:46:10.587Z,99.99
2018-09-01T04:47:10.593Z,99.99
2018-09-01T04:48:10.581Z,99.99
2018-09-01T04:49:10.570Z,99.99
2018-09-01T04:50:10.565Z,99.99
2018-09-01T04:51:10.558Z,99.99
2018-09-01T04:52:10.559Z,99.99
2018-09-01T04:53:10.560Z,99.99
2018-09-01T04:54:10.547Z,99.99
2018-09-01T04:55:10.553Z,99.99
2018-09-01T04:56:10.536Z,99.99
2018-09-01T04:57:10.543Z,99.99
2018-09-01T04:58:10.542Z,99.99
2018-09-01T04:59:10.524Z,99.99
2018-09-01T05:00:10.538Z,99.99
2018-09-01T05:01:10.680Z,99.99
2018-09-01T05:02:10.517Z,99.99
2018-09-01T05:03:10.503Z,99.99
2018-09-01T05:04:10.507Z,99.99
2018-09-01T05:05:10.512Z,99.99
2018-09-01T05:06:10.499Z,99.99
2018-09-01T05:07:10.505Z,99.99
2018-09-01T05:08:10.488Z,99.99
2018-09-01T05:09:10.489Z,99.99
2018-09-01T05:10:10.481Z,99.99
2018-09-01T05:11:10.489Z,99.99
2018-09-01T05:12:10.484Z,99.99
2018-09-01T05:13:10.468Z,99.99
2018-09-01T05:14:10.467Z,99.99
2018-09-01T05:15:10.464Z,99.99
2018-09-01T05:16:10.451Z,99.99
2018-09-01T05:17:10.451Z,99.99
2018-09-01T05:18:10.451Z,99.99
2018-09-01T05:19:10.447Z,99.99
2018-09-01T05:20:10.429Z,99.99
2018-09-01T05:21:10.430Z,99.99
2018-09-01T05:22:10.427Z,99.99
2018-09-01T05:23:10.433Z,99.99
2018-09-01T05:24:10.416Z,99.99
2018-09-01T05:25:10.414Z,99.99
2018-09-01T05:26:10.416Z,99.99
2018-09-01T05:27:10.408Z,99.99
2018-09-01T05:28:10.407Z,99.99
2018-09-01T05:29:10.394Z,99.99
2018-09-01T05:30:10.394Z,99.99
2018-09-01T05:31:10.387Z,99.99
2018-09-01T05:32:10.392Z,99.99
2018-09-01T05:33:10.376Z,99.99
2018-09-01T05:34:10.379Z,99.99
2018-09-01T05:35:10.374Z,99.99
2018-09-01T05:36:10.373Z,99.99
2018-09-01T05:37:10.371Z,99.99
2018-09-01T05:38:10.356Z,99.99
2018-09-01T05:39:10.363Z,99.99
2018-09-01T05:40:10.352Z,99.99
2018-09-01T05:41:10.349Z,99.99
2018-09-01T05:42:10.344Z,99.99
2018-09-01T05:43:10.333Z,99.99
2018-09-01T05:44:10.327Z,99.99
2018-09-01T05:45:10.325Z,99.99
2018-09-01T05:46:10.259Z,99.99
2018-09-01T05:47:10.291Z,99.99
2018-09-01T05:48:10.248Z,99.99
2018-09-01T05:49:10.246Z,99.99
2018-09-01T05:50:10.229Z,99.99
2018-09-01T05:51:10.236Z,99.99
2018-09-01T05:52:10.237Z,99.99
2018-09-01T05:53:10.224Z,99.99
2018-09-01T05:54:10.221Z,99.99
2018-09-01T05:55:10.232Z,99.99
2018-09-01T05:56:10.219Z,99.99
2018-09-01T05:57:10.282Z,99.99
2018-09-01T05:58:10.206Z,99.99
2018-09-01T05:59:10.263Z,99.99
2018-09-01T06:00:10.195Z,99.99
2018-09-01T06:01:10.256Z,99.99
2018-09-01T06:02:10.180Z,99.99
2018-09-01T06:03:10.193Z,99.99
2018-09-01T06:04:10.185Z,99.99
2018-09-01T06:05:10.179Z,99.99
2018-09-01T06:06:10.328Z,99.99
2018-09-01T06:07:10.176Z,99.99
2018-09-01T06:08:10.230Z,99.99
2018-09-01T06:09:10.170Z,99.99
2018-09-01T06:10:10.160Z,99.99
2018-09-01T06:11:10.166Z,99.99
2018-09-01T06:12:10.220Z,99.99
2018-09-01T06:13:10.138Z,99.99
2018-09-01T06:14:10.137Z,99.99
2018-09-01T06:15:10.213Z,99.99
2018-09-01T06:16:10.141Z,99.99
2018-09-01T06:17:10.105Z,99.99
2018-09-01T06:18:10.187Z,99.99
2018-09-01T06:19:10.151Z,99.99
2018-09-01T06:20:10.143Z,99.99
2018-09-01T06:21:10.121Z,99.99
2018-09-01T06:22:10.129Z,99.99
2018-09-01T06:23:10.108Z,99.99
2018-09-01T06:24:10.111Z,99.99
2018-09-01T06:25:10.105Z,99.99
2018-09-01T06:26:10.168Z,99.99
2018-09-01T06:27:10.162Z,99.99
2018-09-01T06:28:10.085Z,99.99
2018-09-01T06:29:10.150Z,99.99
2018-09-01T06:30:10.126Z,99.99
2018-09-01T06:31:10.070Z,99.99
2018-09-01T06:32:10.062Z,99.99
2018-09-01T06:33:10.070Z,99.99
2018-09-01T06:34:10.055Z,99.99
2018-09-01T06:35:10.109Z,99.99
2018-09-01T06:36:10.047Z,99.99
2018-09-01T06:37:10.067Z,99.99
2018-09-01T06:38:10.112Z,99.99
2018-09-01T06:39:10.045Z,99.99
2018-09-01T06:40:10.032Z,99.99
2018-09-01T06:41:10.037Z,99.99
2018-09-01T06:42:10.103Z,99.99
2018-09-01T06:43:10.085Z,99.99
2018-09-01T06:44:10.050Z,99.99
2018-09-01T06:45:10.067Z,99.99
2018-09-01T06:46:10.077Z,99.99
2018-09-01T06:47:10.084Z,99.99
2018-09-01T06:48:10.066Z,99.99
2018-09-01T06:49:09.987Z,99.99
2018-09-01T06:50:10.008Z,99.99
2018-09-01T06:51:09.988Z,99.99
2018-09-01T06:52:10.062Z,99.99
2018-09-01T06:53:10.050Z,99.99
2018-09-01T06:54:10.049Z,99.99
2018-09-01T06:55:10.064Z,99.99
2018-09-01T06:56:10.037Z,99.99
2018-09-01T06:57:10.047Z,99.99
2018-09-01T06:58:09.973Z,99.99
2018-09-01T06:59:10.027Z,99.99
2018-09-01T07:00:10.035Z,99.99
2018-09-01T07:01:09.967Z,99.99
2018-09-01T07:02:10.014Z,99.99
2018-09-01T07:03:10.013Z,99.99
2018-09-01T07:04:09.944Z,99.99
2018-09-01T07:05:09.996Z,99.99
2018-09-01T07:06:09.922Z,99.99
2018-09-01T07:07:09.931Z,99.99
2018-09-01T07:08:10.914Z,99.99
2018-09-01T07:09:09.935Z,99.99
2018-09-01T07:10:09.922Z,99.99
2018-09-01T07:11:09.977Z,99.99
2018-09-01T07:12:09.919Z,99.99
2018-09-01T07:13:09.924Z,99.99
2018-09-01T07:14:09.927Z,99.38
2018-09-01T07:15:09.897Z,99.29
2018-09-01T07:16:09.901Z,99.29
2018-09-01T07:17:09.929Z,98.90
2018-09-01T07:18:09.880Z,99.10
2018-09-01T07:19:09.898Z,99.10
2018-09-01T07:20:09.877Z,98.81
2018-09-01T07:21:09.879Z,98.71
2018-09-01T07:22:09.888Z,98.28
2018-09-01T07:23:09.867Z,98.38
2018-09-01T07:24:09.877Z,98.57
2018-09-01T07:25:09.877Z,98.19
2018-09-01T07:26:09.857Z,98.00
2018-09-01T07:27:09.857Z,97.23
2018-09-01T07:28:09.858Z,96.84
2018-09-01T07:29:09.877Z,97.90
2018-09-01T07:30:09.986Z,97.80
2018-09-01T07:31:10.120Z,97.90
2018-09-01T07:32:09.847Z,97.80
2018-09-01T07:33:09.839Z,98.47
2018-09-01T07:34:09.844Z,98.00
2018-09-01T07:35:09.840Z,98.05
2018-09-01T07:36:09.850Z,96.99
2018-09-01T07:37:09.917Z,97.18
2018-09-01T07:38:09.820Z,97.47
2018-09-01T07:39:09.823Z,96.70
2018-09-01T07:40:09.828Z,96.89
2018-09-01T07:41:09.800Z,96.89
2018-09-01T07:42:09.839Z,96.70
2018-09-01T07:43:09.983Z,96.32
2018-09-01T07:44:09.818Z,96.42
2018-09-01T07:45:09.817Z,96.32
2018-09-01T07:46:09.798Z,96.13
2018-09-01T07:47:09.794Z,95.56
2018-09-01T07:48:09.797Z,94.89
2018-09-01T07:49:09.856Z,94.89
2018-09-01T07:50:09.836Z,94.89
2018-09-01T07:51:09.849Z,95.07
2018-09-01T07:52:09.860Z,94.93
2018-09-01T07:53:09.781Z,94.98
2018-09-01T07:54:09.835Z,93.69
2018-09-01T07:55:10.240Z,94.17
2018-09-01T07:56:09.898Z,94.07
2018-09-01T07:57:09.831Z,94.55
2018-09-01T07:58:09.832Z,93.69
2018-09-01T07:59:09.770Z,93.78
2018-09-01T08:00:09.755Z,92.82
2018-09-01T08:01:09.780Z,92.44
2018-09-01T08:02:09.821Z,92.44
2018-09-01T08:03:09.823Z,92.54
2018-09-01T08:04:09.826Z,92.06
2018-09-01T08:05:09.816Z,91.43
2018-09-01T08:06:09.806Z,91.82
2018-09-01T08:07:09.814Z,91.63
2018-09-01T08:08:09.727Z,91.34
2018-09-01T08:09:09.739Z,90.23
2018-09-01T08:10:09.721Z,90.57
2018-09-01T08:11:09.727Z,90.47
2018-09-01T08:12:09.728Z,89.51
2018-09-01T08:13:09.743Z,88.84
2018-09-01T08:14:09.819Z,89.23
2018-09-01T08:15:09.729Z,88.84
2018-09-01T08:16:09.728Z,88.17
2018-09-01T08:17:09.719Z,86.93
2018-09-01T08:18:09.724Z,87.26
2018-09-01T08:19:09.698Z,86.93
2018-09-01T08:20:09.693Z,86.35
2018-09-01T08:21:09.711Z,85.97
2018-09-01T08:22:09.706Z,86.45
2018-09-01T08:23:09.682Z,87.21
2018-09-01T08:24:09.687Z,87.41
2018-09-01T08:25:09.689Z,87.84
2018-09-01T08:26:09.716Z,86.97
2018-09-01T08:27:09.689Z,85.05
2018-09-01T08:28:09.752Z,85.05
2018-09-01T08:29:09.683Z,84.28
2018-09-01T08:30:09.694Z,83.61
2018-09-01T08:31:09.690Z,82.85
2018-09-01T08:32:09.669Z,83.52
2018-09-01T08:33:09.664Z,82.94
2018-09-01T08:34:09.673Z,83.52
2018-09-01T08:35:09.672Z,83.61
2018-09-01T08:36:09.672Z,82.56
2018-09-01T08:37:09.667Z,82.75
2018-09-01T08:38:09.666Z,81.60
2018-09-01T08:39:09.671Z,81.35
2018-09-01T08:40:09.737Z,82.21
2018-09-01T08:41:09.732Z,82.03
2018-09-01T08:42:09.720Z,82.31
2018-09-01T08:43:09.712Z,82.12
2018-09-01T08:44:09.643Z,81.45
2018-09-01T08:45:09.736Z,81.07
2018-09-01T08:46:09.645Z,80.58
2018-09-01T08:47:09.715Z,80.20
2018-09-01T08:48:09.627Z,80.78
2018-09-01T08:49:09.630Z,81.35
2018-09-01T08:50:09.642Z,81.54
2018-09-01T08:51:09.637Z,81.45
2018-09-01T08:52:09.632Z,81.64
2018-09-01T08:53:09.626Z,80.97
2018-09-01T08:54:09.688Z,79.91
2018-09-01T08:55:09.614Z,80.63
2018-09-01T08:56:09.607Z,80.30
2018-09-01T08:57:09.636Z,79.82
2018-09-01T08:58:09.606Z,79.91
2018-09-01T08:59:09.649Z,80.05
2018-09-01T09:00:09.688Z,79.28
2018-09-01T09:01:09.607Z,78.80
2018-09-01T09:02:09.617Z,79.19
2018-09-01T09:03:09.608Z,78.23
2018-09-01T09:04:09.600Z,78.19
2018-09-01T09:05:09.617Z,78.19
2018-09-01T09:06:09.602Z,77.84
2018-09-01T09:07:09.608Z,76.59
2018-09-01T09:08:09.593Z,75.82
2018-09-01T09:09:09.568Z,76.69
2018-09-01T09:10:09.614Z,76.50
2018-09-01T09:11:09.595Z,75.82
2018-09-01T09:12:09.621Z,75.92
2018-09-01T09:13:09.597Z,75.92
2018-09-01T09:14:09.596Z,75.73
2018-09-01T09:15:09.579Z,75.92
2018-09-01T09:16:09.585Z,75.87
2018-09-01T09:17:09.581Z,75.00
2018-09-01T09:18:09.648Z,73.08
2018-09-01T09:19:09.644Z,73.08
2018-09-01T09:20:09.646Z,73.37
2018-09-01T09:21:09.577Z,73.46
2018-09-01T09:22:09.574Z,73.66
2018-09-01T09:23:09.576Z,73.56
2018-09-01T09:24:09.564Z,73.27
2018-09-01T09:25:09.561Z,72.79
2018-09-01T09:26:09.581Z,72.56
2018-09-01T09:27:09.561Z,74.90
2018-09-01T09:28:09.556Z,74.71
2018-09-01T09:29:09.562Z,74.90
2018-09-01T09:30:09.557Z,74.23
2018-09-01T09:31:09.565Z,74.04
2018-09-01T09:32:09.630Z,74.13
2018-09-01T09:33:09.678Z,74.43
2018-09-01T09:34:09.607Z,73.50
2018-09-01T09:35:09.535Z,74.08
2018-09-01T09:36:09.673Z,72.92
2018-09-01T09:37:09.596Z,72.64
2018-09-01T09:38:09.590Z,72.44
2018-09-01T09:39:09.619Z,71.87
2018-09-01T09:40:09.523Z,71.87
2018-09-01T09:41:09.597Z,71.77
2018-09-01T09:42:09.602Z,70.90
2018-09-01T09:43:09.585Z,70.72
2018-09-01T09:44:09.526Z,71.23
2018-09-01T09:45:09.601Z,70.84
2018-09-01T09:46:09.593Z,70.17
2018-09-01T09:47:09.518Z,70.81
2018-09-01T09:48:09.595Z,70.33
2018-09-01T09:49:09.591Z,70.14
2018-09-01T09:50:09.602Z,70.33
2018-09-01T09:51:09.589Z,70.52
2018-09-01T09:52:09.581Z,70.33
2018-09-01T09:53:09.614Z,70.81
2018-09-01T09:54:09.576Z,70.33
2018-09-01T09:55:09.578Z,70.37
2018-09-01T09:56:09.586Z,70.27
2018-09-01T09:57:09.585Z,70.37
2018-09-01T09:58:09.582Z,70.56
2018-09-01T09:59:09.574Z,69.02
2018-09-01T10:00:09.568Z,68.63
2018-09-01T10:01:09.648Z,68.54
2018-09-01T10:02:09.575Z,69.18
2018-09-01T10:03:09.571Z,69.50
2018-09-01T10:04:09.567Z,69.02
2018-09-01T10:05:09.527Z,68.21
2018-09-01T10:06:09.499Z,68.06
2018-09-01T10:07:09.497Z,68.44
2018-09-01T10:08:09.503Z,67.48
2018-09-01T10:09:09.496Z,68.54
2018-09-01T10:10:09.571Z,68.15
2018-09-01T10:11:09.517Z,66.81
2018-09-01T10:12:09.514Z,66.91
2018-09-01T10:13:09.483Z,66.42
2018-09-01T10:14:09.555Z,66.52
2018-09-01T10:15:09.556Z,67.32
2018-09-01T10:16:09.478Z,67.51
2018-09-01T10:17:09.559Z,66.55
2018-09-01T10:18:09.560Z,66.74
2018-09-01T10:19:09.637Z,66.46
2018-09-01T10:20:09.912Z,66.07
2018-09-01T10:21:09.475Z,66.84
2018-09-01T10:22:09.470Z,65.91
2018-09-01T10:23:09.481Z,64.86
2018-09-01T10:24:10.556Z,65.14
2018-09-01T10:25:09.491Z,64.28
2018-09-01T10:26:09.529Z,64.28
2018-09-01T10:27:09.623Z,64.08
2018-09-01T10:28:09.621Z,63.82
2018-09-01T10:29:09.568Z,64.02
2018-09-01T10:30:09.627Z,63.82
2018-09-01T10:31:09.816Z,63.92
2018-09-01T10:32:09.502Z,63.41
2018-09-01T10:33:09.600Z,63.70
2018-09-01T10:34:09.622Z,63.22
2018-09-01T10:35:09.477Z,64.21
2018-09-01T10:36:09.548Z,63.64
2018-09-01T10:37:09.478Z,63.73
2018-09-01T10:38:09.461Z,63.15
2018-09-01T10:39:09.454Z,62.32
2018-09-01T10:40:09.536Z,62.22
2018-09-01T10:41:09.460Z,62.51
2018-09-01T10:42:09.455Z,62.22
2018-09-01T10:43:09.466Z,62.41
2018-09-01T10:44:09.466Z,62.22
2018-09-01T10:45:09.456Z,61.71
2018-09-01T10:46:09.468Z,61.71
2018-09-01T10:47:09.466Z,62.48
2018-09-01T10:48:09.470Z,63.25
2018-09-01T10:49:09.452Z,62.09
2018-09-01T10:50:09.460Z,63.25
2018-09-01T10:51:09.466Z,63.25
2018-09-01T10:52:09.471Z,63.06
2018-09-01T10:53:09.725Z,63.92
2018-09-01T10:54:09.472Z,63.31
2018-09-01T10:55:09.459Z,63.82
2018-09-01T10:56:09.469Z,63.12
2018-09-01T10:57:09.461Z,63.12
2018-09-01T10:58:09.472Z,63.31
2018-09-01T10:59:09.570Z,64.18
2018-09-01T11:00:09.463Z,64.50
2018-09-01T11:01:09.474Z,63.82
2018-09-01T11:02:09.470Z,61.00
2018-09-01T11:03:09.462Z,61.07
2018-09-01T11:04:09.458Z,62.03
2018-09-01T11:05:09.583Z,62.45
2018-09-01T11:06:09.469Z,62.45
2018-09-01T11:07:09.480Z,62.06
2018-09-01T11:08:09.460Z,62.38
2018-09-01T11:09:09.466Z,62.29
2018-09-01T11:10:09.465Z,62.32
2018-09-01T11:11:09.493Z,60.68
2018-09-01T11:12:09.464Z,59.84
2018-09-01T11:13:09.459Z,59.55
2018-09-01T11:14:09.934Z,58.78
2018-09-01T11:15:09.475Z,58.27
2018-09-01T11:16:34.934Z,58.11
2018-09-01T11:17:34.926Z,57.72
2018-09-01T11:19:29.599Z,57.27
2018-09-01T11:20:29.575Z,58.04
2018-09-01T11:22:24.304Z,57.29
2018-09-01T11:23:24.274Z,56.43
2018-09-01T11:25:18.445Z,56.62
2018-09-01T11:26:18.447Z,56.24
2018-09-01T11:28:12.779Z,55.49
2018-09-01T11:29:12.624Z,55.10
2018-09-01T11:31:07.299Z,54.79
2018-09-01T11:32:07.319Z,54.60
2018-09-01T11:34:02.057Z,55.94
2018-09-01T11:35:01.983Z,56.04
2018-09-01T11:36:56.723Z,54.88
2018-09-01T11:37:56.649Z,54.27
2018-09-01T11:39:50.932Z,51.68
2018-09-01T11:40:50.827Z,51.39
2018-09-01T11:42:45.241Z,50.23
2018-09-01T11:43:45.013Z,50.45
2018-09-01T11:45:39.258Z,50.71
2018-09-01T11:46:39.212Z,52.17
2018-09-01T11:48:33.440Z,51.20
2018-09-01T11:49:33.403Z,51.85
2018-09-01T11:51:28.108Z,51.63
2018-09-01T11:52:28.071Z,52.09
2018-09-01T11:54:22.308Z,53.05
2018-09-01T11:55:22.263Z,53.25
2018-09-01T11:57:17.023Z,52.89
2018-09-01T11:58:16.944Z,53.03
2018-09-01T12:00:11.145Z,54.28
2018-09-01T12:01:11.286Z,54.40
2018-09-01T12:03:05.883Z,53.25
2018-09-01T12:04:05.823Z,52.57
2018-09-01T12:06:00.006Z,53.05
2018-09-01T12:07:00.011Z,52.95
2018-09-01T12:08:54.278Z,53.34
2018-09-01T12:09:54.214Z,53.75
2018-09-01T12:11:48.388Z,53.27
2018-09-01T12:12:48.377Z,52.98
2018-09-01T12:14:42.626Z,53.17
2018-09-01T12:15:42.647Z,54.31
2018-09-01T12:17:36.746Z,54.17
2018-09-01T12:18:36.757Z,52.89
2018-09-01T12:20:30.980Z,53.17
2018-09-01T12:21:30.935Z,52.98
2018-09-01T12:23:25.624Z,47.94
2018-09-01T12:24:25.634Z,44.46
2018-09-01T12:26:19.846Z,40.68
2018-09-01T12:27:19.794Z,39.62
2018-09-01T12:29:13.981Z,36.86
2018-09-01T12:30:13.986Z,35.63
2018-09-01T12:32:08.179Z,35.07
2018-09-01T12:33:08.174Z,34.50
2018-09-01T12:35:02.346Z,33.65
2018-09-01T12:36:02.366Z,32.29
2018-09-01T12:37:56.601Z,32.48
2018-09-01T12:38:56.592Z,33.30
2018-09-01T12:40:50.754Z,32.19
2018-09-01T12:41:50.748Z,31.23
2018-09-01T12:43:44.997Z,32.91
2018-09-01T12:44:44.942Z,34.05
2018-09-01T12:46:39.142Z,33.30
2018-09-01T12:47:39.139Z,34.50
2018-09-01T12:49:33.453Z,30.69
2018-09-01T12:50:33.410Z,32.18
2018-09-01T12:52:28.045Z,36.55
2018-09-01T12:53:28.042Z,37.92
2018-09-01T12:55:22.329Z,37.02
2018-09-01T12:56:22.279Z,37.06
2018-09-01T12:58:16.460Z,39.88
2018-09-01T12:59:16.466Z,41.33
2018-09-01T13:01:10.687Z,41.33
2018-09-01T13:02:10.681Z,40.11
2018-09-01T13:04:04.847Z,40.13
2018-09-01T13:06:19.613Z,41.36
2018-09-01T13:07:19.557Z,40.95
2018-09-01T13:09:14.589Z,37.00
2018-09-01T13:10:13.804Z,33.59
2018-09-01T13:12:08.042Z,31.38
2018-09-01T13:13:08.004Z,31.23
2018-09-01T13:15:02.196Z,28.99
2018-09-01T13:16:02.185Z,30.41
2018-09-01T13:17:56.424Z,28.83
2018-09-01T13:18:56.426Z,28.53
2018-09-01T13:20:50.583Z,27.57
2018-09-01T13:21:50.601Z,27.08
2018-09-01T13:23:44.836Z,29.73
2018-09-01T13:24:44.818Z,32.50
2018-09-01T13:26:39.567Z,35.08
2018-09-01T13:27:39.580Z,36.69
2018-09-01T13:29:33.752Z,33.23
2018-09-01T13:30:33.783Z,30.27
2018-09-01T13:32:27.963Z,28.15
2018-09-01T13:33:27.912Z,27.29
2018-09-01T13:35:22.225Z,26.43
2018-09-01T13:36:22.199Z,26.05